createdAt,value
2017-11-25T00:00:53.722Z,100079.96
2017-11-25T00:01:56.226Z,100078.75
2017-11-25T00:02:58.692Z,100073.09
2017-11-25T00:04:01.215Z,100075.45
2017-11-25T00:05:03.712Z,100071.15
2017-11-25T00:06:06.195Z,100068.34
2017-11-25T00:07:08.677Z,100073.90
2017-11-25T00:08:11.200Z,100072.58
2017-11-25T00:09:13.678Z,100073.01
2017-11-25T00:10:16.159Z,100072.08
2017-11-25T00:11:18.638Z,100066.06
2017-11-25T00:12:21.105Z,100060.03
2017-11-25T00:13:23.572Z,100058.63
2017-11-25T00:14:26.036Z,100054.99
2017-11-25T00:15:28.500Z,100054.48
2017-11-25T00:16:30.987Z,100055.37
2017-11-25T00:17:33.491Z,100053.27
2017-11-25T00:18:35.974Z,100043.95
2017-11-25T00:19:38.439Z,100047.53
2017-11-25T00:20:40.948Z,100037.78
2017-11-25T00:21:43.424Z,100039.96
2017-11-25T00:22:45.964Z,100038.88
2017-11-25T00:23:48.429Z,100040.93
2017-11-25T00:24:50.928Z,100035.11
2017-11-25T00:25:53.437Z,100041.17
2017-11-25T00:26:55.907Z,100028.76
2017-11-25T00:27:58.386Z,100026.66
2017-11-25T00:29:00.867Z,100031.85
2017-11-25T00:30:03.361Z,100024.98
2017-11-25T00:31:05.862Z,100025.39
2017-11-25T00:32:08.364Z,100027.66
2017-11-25T00:33:10.833Z,100019.11
2017-11-25T00:34:13.319Z,100011.28
2017-11-25T00:35:15.877Z,100016.40
2017-11-25T00:36:18.351Z,100014.03
2017-11-25T00:37:20.811Z,100003.06
2017-11-25T00:38:23.293Z,100008.97
2017-11-25T00:39:25.811Z,100006.11
2017-11-25T00:40:28.314Z,100007.19
2017-11-25T00:41:30.780Z,100001.08
2017-11-25T00:42:33.260Z,100004.62
2017-11-25T00:43:35.742Z,100000.82
2017-11-25T00:44:38.210Z,100002.50
2017-11-25T00:45:40.710Z,100007.41
2017-11-25T00:46:43.179Z,100002.49
2017-11-25T00:47:45.657Z,100000.50
2017-11-25T00:48:48.145Z,99994.97
2017-11-25T00:49:50.696Z,99997.26
2017-11-25T00:50:53.177Z,99998.47
2017-11-25T00:51:55.656Z,100001.46
2017-11-25T00:52:58.118Z,100005.07
2017-11-25T00:54:00.594Z,100008.78
2017-11-25T00:55:03.065Z,100004.23
2017-11-25T00:56:05.562Z,100006.93
2017-11-25T00:57:08.029Z,99995.66
2017-11-25T00:58:10.522Z,100001.62
2017-11-25T00:59:13.018Z,100004.55
2017-11-25T01:00:15.503Z,100000.06
2017-11-25T01:01:17.990Z,99998.23
2017-11-25T01:02:20.475Z,99985.78
2017-11-25T01:03:22.945Z,99995.48
2017-11-25T01:04:25.415Z,99995.97
2017-11-25T01:05:27.872Z,99996.84
2017-11-25T01:06:30.347Z,99997.91
2017-11-25T01:07:32.822Z,99994.57
2017-11-25T01:08:35.300Z,99990.14
2017-11-25T01:09:37.777Z,99991.18
2017-11-25T01:10:40.241Z,99986.37
2017-11-25T01:11:42.712Z,99989.00
2017-11-25T01:12:45.274Z,99993.77
2017-11-25T01:13:47.751Z,99997.98
2017-11-25T01:14:50.213Z,100003.71
2017-11-25T01:15:52.740Z,100007.02
2017-11-25T01:16:55.260Z,100004.98
2017-11-25T01:17:57.803Z,100007.88
2017-11-25T01:19:00.441Z,100005.69
2017-11-25T01:20:02.971Z,100007.09
2017-11-25T01:21:05.508Z,100008.86
2017-11-25T01:22:08.037Z,100011.41
2017-11-25T01:23:10.563Z,100011.66
2017-11-25T01:24:13.098Z,100008.83
2017-11-25T01:25:15.635Z,100014.54
2017-11-25T01:26:18.168Z,100014.97
2017-11-25T01:27:20.699Z,100019.95
2017-11-25T01:28:23.457Z,100019.06
2017-11-25T01:29:25.981Z,100017.50
2017-11-25T01:30:28.521Z,100013.89
2017-11-25T01:31:31.035Z,100018.36
2017-11-25T01:32:33.708Z,100017.09
2017-11-25T01:33:36.254Z,100010.82
2017-11-25T01:34:38.888Z,100012.33
2017-11-25T01:35:41.425Z,100012.77
2017-11-25T01:36:43.964Z,100011.36
2017-11-25T01:37:46.514Z,100015.98
2017-11-25T01:38:49.100Z,100015.59
2017-11-25T01:39:51.745Z,100017.84
2017-11-25T01:40:54.276Z,100017.91
2017-11-25T01:41:56.857Z,100012.05
2017-11-25T01:42:59.369Z,100011.62
2017-11-25T01:44:01.935Z,100018.36
2017-11-25T01:45:04.452Z,100020.37
2017-11-25T01:46:06.989Z,100014.44
2017-11-25T01:47:09.531Z,100014.77
2017-11-25T01:48:12.052Z,100011.82
2017-11-25T01:49:14.590Z,100012.78
2017-11-25T01:50:17.117Z,100004.31
2017-11-25T01:51:19.683Z,100008.29
2017-11-25T01:52:22.207Z,100004.39
2017-11-25T01:53:24.716Z,99991.16
2017-11-25T01:54:27.226Z,99999.59
2017-11-25T01:55:29.766Z,99998.48
2017-11-25T01:56:32.298Z,99998.55
2017-11-25T01:57:34.827Z,99997.09
2017-11-25T01:58:37.346Z,99996.20
2017-11-25T01:59:39.884Z,99995.13
2017-11-25T02:00:42.420Z,99990.73
2017-11-25T02:01:44.952Z,99991.14
2017-11-25T02:02:47.472Z,99991.30
2017-11-25T02:03:50.000Z,99986.56
2017-11-25T02:04:52.544Z,99985.34
2017-11-25T02:05:55.086Z,99983.79
2017-11-25T02:06:57.622Z,99981.20
2017-11-25T02:08:00.143Z,99976.08
2017-11-25T02:09:02.668Z,99978.20
2017-11-25T02:10:05.183Z,99970.36
2017-11-25T02:11:07.696Z,99962.34
2017-11-25T02:12:10.207Z,99959.73
2017-11-25T02:13:12.719Z,99953.52
2017-11-25T02:14:15.244Z,99949.06
2017-11-25T02:15:17.769Z,99945.41
2017-11-25T02:16:20.319Z,99931.00
2017-11-25T02:17:22.828Z,99934.63
2017-11-25T02:18:25.345Z,99922.88
2017-11-25T02:19:27.859Z,99923.55
2017-11-25T02:20:30.372Z,99913.78
2017-11-25T02:21:32.901Z,99917.68
2017-11-25T02:22:35.425Z,99926.00
2017-11-25T02:23:37.939Z,99931.05
2017-11-25T02:24:40.459Z,99923.98
2017-11-25T02:25:42.985Z,99930.00
2017-11-25T02:26:45.503Z,99927.56
2017-11-25T02:27:48.017Z,99926.08
2017-11-25T02:28:50.531Z,99917.80
2017-11-25T02:29:53.055Z,99919.98
2017-11-25T02:30:55.580Z,99915.49
2017-11-25T02:31:58.115Z,99909.81
2017-11-25T02:33:00.638Z,99909.64
2017-11-25T02:34:03.173Z,99905.48
2017-11-25T02:35:05.699Z,99913.73
2017-11-25T02:36:08.209Z,99917.53
2017-11-25T02:37:10.750Z,99913.66
2017-11-25T02:38:13.271Z,99917.29
2017-11-25T02:39:15.823Z,99919.77
2017-11-25T02:40:18.343Z,99920.41
2017-11-25T02:41:20.877Z,99914.16
2017-11-25T02:42:23.388Z,99915.02
2017-11-25T02:43:25.904Z,99913.81
2017-11-25T02:44:28.444Z,99915.64
2017-11-25T02:45:30.983Z,99911.47
2017-11-25T02:46:33.496Z,99912.09
2017-11-25T02:47:36.036Z,99909.97
2017-11-25T02:48:38.565Z,99908.36
2017-11-25T02:49:41.087Z,99905.69
2017-11-25T02:50:43.605Z,99908.97
2017-11-25T02:51:46.135Z,99910.92
2017-11-25T02:52:48.642Z,99903.54
2017-11-25T02:53:51.166Z,99908.03
2017-11-25T02:54:53.675Z,99904.50
2017-11-25T02:55:56.199Z,99903.58
2017-11-25T02:56:58.737Z,99908.23
2017-11-25T02:58:01.266Z,99911.30
2017-11-25T02:59:03.802Z,99902.48
2017-11-25T03:00:06.324Z,99904.84
2017-11-25T03:01:08.855Z,99912.34
2017-11-25T03:02:11.381Z,99913.58
2017-11-25T03:03:13.885Z,99907.72
2017-11-25T03:04:16.433Z,99910.67
2017-11-25T03:05:18.957Z,99902.32
2017-11-25T03:06:21.467Z,99902.73
2017-11-25T03:07:23.985Z,99899.73
2017-11-25T03:08:26.493Z,99896.86
2017-11-25T03:09:29.012Z,99900.47
2017-11-25T03:10:31.530Z,99897.84
2017-11-25T03:11:34.055Z,99902.90
2017-11-25T03:12:36.582Z,99899.98
2017-11-25T03:13:39.095Z,99903.91
2017-11-25T03:14:41.637Z,99897.28
2017-11-25T03:15:44.154Z,99896.28
2017-11-25T03:16:46.675Z,99894.27
2017-11-25T03:17:49.185Z,99897.41
2017-11-25T03:18:51.687Z,99898.78
2017-11-25T03:19:54.206Z,99907.63
2017-11-25T03:20:56.708Z,99911.06
2017-11-25T03:21:59.206Z,99919.88
2017-11-25T03:23:01.814Z,99926.47
2017-11-25T03:24:04.345Z,99920.54
2017-11-25T03:25:06.847Z,99922.48
2017-11-25T03:26:09.351Z,99925.10
2017-11-25T03:27:11.865Z,99910.98
2017-11-25T03:28:14.413Z,99915.92
2017-11-25T03:29:16.935Z,99913.84
2017-11-25T03:30:19.455Z,99912.24
2017-11-25T03:31:21.957Z,99914.10
2017-11-25T03:32:24.470Z,99916.95
2017-11-25T03:33:26.971Z,99907.53
2017-11-25T03:34:29.488Z,99904.00
2017-11-25T03:35:32.013Z,99900.02
2017-11-25T03:36:34.524Z,99903.58
2017-11-25T03:37:37.094Z,99896.63
2017-11-25T03:38:39.608Z,99894.64
2017-11-25T03:39:42.144Z,99892.64
2017-11-25T03:40:44.655Z,99889.66
2017-11-25T03:41:47.171Z,99890.57
2017-11-25T03:42:49.717Z,99893.70
2017-11-25T03:43:52.223Z,99898.17
2017-11-25T03:44:54.731Z,99900.67
2017-11-25T03:45:57.235Z,99898.16
2017-11-25T03:46:59.757Z,99908.08
2017-11-25T03:48:02.268Z,99904.75
2017-11-25T03:49:04.786Z,99896.73
2017-11-25T03:50:07.318Z,99897.83
2017-11-25T03:51:09.839Z,99897.55
2017-11-25T03:52:12.352Z,99900.07
2017-11-25T03:53:14.873Z,99894.87
2017-11-25T03:54:17.393Z,99887.55
2017-11-25T03:55:19.899Z,99885.89
2017-11-25T03:56:22.419Z,99877.43
2017-11-25T03:57:24.947Z,99879.87
2017-11-25T03:58:27.473Z,99886.64
2017-11-25T03:59:29.972Z,99886.98
2017-11-25T04:00:32.488Z,99887.04
2017-11-25T04:01:34.982Z,99886.03
2017-11-25T04:02:37.497Z,99887.64
2017-11-25T04:03:40.008Z,99896.17
2017-11-25T04:04:42.559Z,99897.98
2017-11-25T04:05:45.081Z,99900.70
2017-11-25T04:06:47.631Z,99905.55
2017-11-25T04:07:50.147Z,99896.31
2017-11-25T04:08:52.674Z,99893.02
2017-11-25T04:09:55.208Z,99891.09
2017-11-25T04:10:57.759Z,99897.34
2017-11-25T04:12:00.277Z,99889.73
2017-11-25T04:13:02.789Z,99895.47
2017-11-25T04:14:05.303Z,99895.70
2017-11-25T04:15:07.831Z,99900.09
2017-11-25T04:16:10.339Z,99899.34
2017-11-25T04:17:12.843Z,99902.00
2017-11-25T04:18:15.355Z,99894.67
2017-11-25T04:19:17.864Z,99886.89
2017-11-25T04:20:20.363Z,99895.36
2017-11-25T04:21:22.906Z,99895.73
2017-11-25T04:22:25.417Z,99889.56
2017-11-25T04:23:27.915Z,99885.39
2017-11-25T04:24:30.444Z,99886.75
2017-11-25T04:25:32.948Z,99879.78
2017-11-25T04:26:35.470Z,99876.19
2017-11-25T04:27:37.979Z,99882.13
2017-11-25T04:28:40.497Z,99877.88
2017-11-25T04:29:43.003Z,99874.13
2017-11-25T04:30:45.515Z,99863.20
2017-11-25T04:31:48.051Z,99867.61
2017-11-25T04:32:50.565Z,99869.13
2017-11-25T04:33:53.086Z,99871.80
2017-11-25T04:34:55.591Z,99867.78
2017-11-25T04:35:58.121Z,99856.77
2017-11-25T04:37:00.627Z,99859.92
2017-11-25T04:38:03.123Z,99862.98
2017-11-25T04:39:05.638Z,99862.21
2017-11-25T04:40:08.162Z,99859.52
2017-11-25T04:41:10.695Z,99862.33
2017-11-25T04:42:13.219Z,99860.61
2017-11-25T04:43:15.741Z,99864.91
2017-11-25T04:44:18.269Z,99867.41
2017-11-25T04:45:20.781Z,99862.97
2017-11-25T04:46:23.305Z,99860.35
2017-11-25T04:47:25.816Z,99863.25
2017-11-25T04:48:28.343Z,99865.48
2017-11-25T04:49:30.924Z,99858.23
2017-11-25T04:50:33.442Z,99859.12
2017-11-25T04:51:35.981Z,99858.31
2017-11-25T04:52:38.511Z,99858.48
2017-11-25T04:53:41.036Z,99858.11
2017-11-25T04:54:43.547Z,99864.08
2017-11-25T04:55:46.061Z,99865.52
2017-11-25T04:56:48.564Z,99867.78
2017-11-25T04:57:51.112Z,99869.05
2017-11-25T04:58:53.612Z,99866.58
2017-11-25T04:59:56.145Z,99862.01
2017-11-25T05:00:58.658Z,99871.48
2017-11-25T05:02:01.185Z,99863.56
2017-11-25T05:03:03.714Z,99867.24
2017-11-25T05:04:06.219Z,99874.84
2017-11-25T05:05:08.731Z,99871.72
2017-11-25T05:06:11.231Z,99875.59
2017-11-25T05:07:13.735Z,99874.84
2017-11-25T05:08:16.253Z,99870.89
2017-11-25T05:09:18.764Z,99873.34
2017-11-25T05:10:21.264Z,99871.41
2017-11-25T05:11:23.786Z,99874.67
2017-11-25T05:12:26.303Z,99868.64
2017-11-25T05:13:28.831Z,99860.20
2017-11-25T05:14:31.442Z,99872.89
2017-11-25T05:15:33.944Z,99867.61
2017-11-25T05:16:37.012Z,99866.06
2017-11-25T05:17:39.520Z,99855.73
2017-11-25T05:18:42.023Z,99863.08
2017-11-25T05:19:44.531Z,99861.27
2017-11-25T05:20:47.085Z,99865.92
2017-11-25T05:21:49.600Z,99865.32
2017-11-25T05:22:52.116Z,99865.69
2017-11-25T05:23:54.628Z,99870.88
2017-11-25T05:24:57.148Z,99872.52
2017-11-25T05:25:59.706Z,99879.66
2017-11-25T05:27:02.211Z,99877.39
2017-11-25T05:28:04.735Z,99874.34
2017-11-25T05:29:07.249Z,99882.50
2017-11-25T05:30:09.775Z,99875.28
2017-11-25T05:31:12.285Z,99876.02
2017-11-25T05:32:15.063Z,99879.23
2017-11-25T05:33:17.590Z,99873.23
2017-11-25T05:34:20.117Z,99874.67
2017-11-25T05:35:22.625Z,99879.47
2017-11-25T05:36:25.133Z,99879.55
2017-11-25T05:37:27.659Z,99881.84
2017-11-25T05:38:30.188Z,99877.39
2017-11-25T05:39:32.714Z,99881.16
2017-11-25T05:40:35.224Z,99883.51
2017-11-25T05:41:37.751Z,99886.37
2017-11-25T05:42:40.254Z,99881.12
2017-11-25T05:43:42.818Z,99877.22
2017-11-25T05:44:45.344Z,99884.13
2017-11-25T05:45:47.874Z,99876.44
2017-11-25T05:46:50.384Z,99880.84
2017-11-25T05:47:52.918Z,99877.27
2017-11-25T05:48:55.440Z,99882.86
2017-11-25T05:49:57.968Z,99879.67
2017-11-25T05:51:00.532Z,99881.38
2017-11-25T05:52:03.070Z,99883.63
2017-11-25T05:53:05.580Z,99881.69
2017-11-25T05:54:08.121Z,99889.58
2017-11-25T05:55:10.633Z,99882.61
2017-11-25T05:56:13.162Z,99883.08
2017-11-25T05:57:15.680Z,99889.73
2017-11-25T05:58:18.223Z,99889.39
2017-11-25T05:59:20.749Z,99896.36
2017-11-25T06:00:23.260Z,99898.55
2017-11-25T06:01:25.818Z,99896.20
2017-11-25T06:02:28.323Z,99898.83
2017-11-25T06:03:30.853Z,99894.00
2017-11-25T06:04:33.402Z,99894.02
2017-11-25T06:05:35.914Z,99894.04
2017-11-25T06:06:38.457Z,99903.84
2017-11-25T06:07:40.967Z,99906.66
2017-11-25T06:08:43.506Z,99907.47
2017-11-25T06:09:46.029Z,99911.70
2017-11-25T06:10:48.558Z,99906.84
2017-11-25T06:11:51.135Z,99911.09
2017-11-25T06:12:53.665Z,99908.73
2017-11-25T06:13:56.180Z,99900.76
2017-11-25T06:14:58.692Z,99899.70
2017-11-25T06:16:01.218Z,99899.16
2017-11-25T06:17:03.749Z,99897.91
2017-11-25T06:18:06.255Z,99904.36
2017-11-25T06:19:08.761Z,99907.72
2017-11-25T06:20:11.272Z,99912.51
2017-11-25T06:21:13.771Z,99906.72
2017-11-25T06:22:16.379Z,99906.67
2017-11-25T06:23:18.883Z,99905.59
2017-11-25T06:24:21.383Z,99904.22
2017-11-25T06:25:23.892Z,99907.26
2017-11-25T06:26:26.433Z,99906.60
2017-11-25T06:27:28.979Z,99902.00
2017-11-25T06:28:31.505Z,99907.95
2017-11-25T06:29:34.097Z,99908.84
2017-11-25T06:30:36.616Z,99911.70
2017-11-25T06:31:39.286Z,99911.51
2017-11-25T06:32:41.829Z,99909.44
2017-11-25T06:33:44.361Z,99914.32
2017-11-25T06:34:46.863Z,99912.17
2017-11-25T06:35:49.433Z,99912.77
2017-11-25T06:36:52.015Z,99920.92
2017-11-25T06:37:54.561Z,99927.91
2017-11-25T06:38:57.081Z,99936.44
2017-11-25T06:39:59.602Z,99928.00
2017-11-25T06:41:02.106Z,99925.42
2017-11-25T06:42:04.653Z,99923.77
2017-11-25T06:43:07.233Z,99925.66
2017-11-25T06:44:09.736Z,99930.03
2017-11-25T06:45:12.268Z,99940.77
2017-11-25T06:46:14.786Z,99935.36
2017-11-25T06:47:17.287Z,99951.41
2017-11-25T06:48:19.847Z,99946.22
2017-11-25T06:49:22.369Z,99947.36
2017-11-25T06:50:24.889Z,99949.57
2017-11-25T06:51:27.413Z,99952.41
2017-11-25T06:52:29.927Z,99949.44
2017-11-25T06:53:32.456Z,99950.09
2017-11-25T06:54:34.975Z,99952.84
2017-11-25T06:55:37.506Z,99950.30
2017-11-25T06:56:40.054Z,99952.44
2017-11-25T06:57:42.592Z,99954.84
2017-11-25T06:58:45.163Z,99954.41
2017-11-25T06:59:47.827Z,99960.22
2017-11-25T07:00:50.343Z,99957.30
2017-11-25T07:01:52.873Z,99948.52
2017-11-25T07:02:55.379Z,99951.41
2017-11-25T07:03:57.932Z,99953.38
2017-11-25T07:05:00.457Z,99958.00
2017-11-25T07:06:03.016Z,99962.34
2017-11-25T07:07:05.536Z,99966.40
2017-11-25T07:08:08.079Z,99964.59
2017-11-25T07:09:10.621Z,99980.67
2017-11-25T07:10:13.148Z,99975.56
2017-11-25T07:11:15.708Z,99976.30
2017-11-25T07:12:18.229Z,99983.57
2017-11-25T07:13:20.748Z,99985.20
2017-11-25T07:14:23.283Z,99986.70
2017-11-25T07:15:25.799Z,99984.89
2017-11-25T07:16:28.319Z,99991.66
2017-11-25T07:17:30.868Z,99990.22
2017-11-25T07:18:33.380Z,99993.59
2017-11-25T07:19:35.921Z,99990.77
2017-11-25T07:20:38.455Z,99990.89
2017-11-25T07:21:40.962Z,99994.83
2017-11-25T07:22:43.518Z,100001.20
2017-11-25T07:23:46.048Z,100006.59
2017-11-25T07:24:48.608Z,100002.39
2017-11-25T07:25:51.124Z,100002.30
2017-11-25T07:26:53.639Z,100004.09
2017-11-25T07:27:56.173Z,100000.34
2017-11-25T07:28:58.721Z,100008.95
2017-11-25T07:30:01.297Z,100007.45
2017-11-25T07:31:03.830Z,100007.02
2017-11-25T07:32:06.391Z,100008.67
2017-11-25T07:33:08.931Z,100008.57
2017-11-25T07:34:11.448Z,100010.00
2017-11-25T07:35:14.001Z,100005.20
2017-11-25T07:36:16.545Z,100008.38
2017-11-25T07:37:19.068Z,100008.64
2017-11-25T07:38:21.583Z,100005.52
2017-11-25T07:39:24.130Z,100007.27
2017-11-25T07:40:26.671Z,100009.77
2017-11-25T07:41:29.232Z,100010.48
2017-11-25T07:42:31.746Z,100011.28
2017-11-25T07:43:34.264Z,100018.03
2017-11-25T07:44:36.803Z,100020.25
2017-11-25T07:45:39.365Z,100021.17
2017-11-25T07:46:41.902Z,100025.23
2017-11-25T07:47:44.434Z,100023.02
2017-11-25T07:48:46.998Z,100022.03
2017-11-25T07:49:49.507Z,100021.62
2017-11-25T07:50:52.061Z,100021.08
2017-11-25T07:51:54.575Z,100027.75
2017-11-25T07:52:57.106Z,100036.86
2017-11-25T07:53:59.624Z,100036.06
2017-11-25T07:55:02.164Z,100041.33
2017-11-25T07:56:04.755Z,100047.05
2017-11-25T07:57:14.520Z,100047.75
2017-11-25T07:58:17.045Z,100047.16
2017-11-25T07:59:19.582Z,100047.45
2017-11-25T08:00:22.105Z,100044.73
2017-11-25T08:01:24.638Z,100051.24
2017-11-25T08:02:27.165Z,100049.89
2017-11-25T08:03:29.684Z,100055.95
2017-11-25T08:04:32.217Z,100058.88
2017-11-25T08:05:34.739Z,100054.20
2017-11-25T08:06:37.295Z,100056.07
2017-11-25T08:07:40.643Z,100059.52
2017-11-25T08:08:43.183Z,100060.94
2017-11-25T08:09:45.643Z,100060.66
2017-11-25T08:10:48.162Z,100066.17
2017-11-25T08:11:50.692Z,100065.41
2017-11-25T08:12:53.170Z,100065.74
2017-11-25T08:13:55.661Z,100075.59
2017-11-25T08:14:58.127Z,100077.46
2017-11-25T08:16:00.607Z,100078.49
2017-11-25T08:17:03.111Z,100076.89
2017-11-25T08:18:05.610Z,100083.15
2017-11-25T08:19:08.099Z,100073.20
2017-11-25T08:20:10.576Z,100080.48
2017-11-25T08:21:13.059Z,100072.33
2017-11-25T08:22:15.557Z,100077.86
2017-11-25T08:23:18.023Z,100081.27
2017-11-25T08:24:20.502Z,100078.82
2017-11-25T08:25:22.971Z,100082.42
2017-11-25T08:26:25.452Z,100080.52
2017-11-25T08:27:27.963Z,100080.46
2017-11-25T08:28:30.508Z,100088.77
2017-11-25T08:29:33.036Z,100081.50
2017-11-25T08:30:35.551Z,100084.08
2017-11-25T08:31:38.043Z,100094.37
2017-11-25T08:32:40.550Z,100092.13
2017-11-25T08:33:43.037Z,100086.27
2017-11-25T08:34:45.501Z,100093.08
2017-11-25T08:35:47.968Z,100090.80
2017-11-25T08:36:50.444Z,100093.61
2017-11-25T08:37:52.946Z,100098.91
2017-11-25T08:38:55.403Z,100098.13
2017-11-25T08:39:57.881Z,100095.39
2017-11-25T08:41:00.409Z,100099.21
2017-11-25T08:42:02.883Z,100100.78
2017-11-25T08:43:05.382Z,100100.44
2017-11-25T08:44:07.852Z,100100.69
2017-11-25T08:45:10.320Z,100105.80
2017-11-25T08:46:12.796Z,100104.45
2017-11-25T08:47:15.331Z,100103.58
2017-11-25T08:48:17.833Z,100107.43
2017-11-25T08:49:20.306Z,100109.52
2017-11-25T08:50:22.788Z,100107.64
2017-11-25T08:51:25.290Z,100110.25
2017-11-25T08:52:27.848Z,100110.89
2017-11-25T08:53:30.345Z,100107.12
2017-11-25T08:54:32.831Z,100110.36
2017-11-25T08:55:35.316Z,100109.98
2017-11-25T08:56:37.785Z,100110.78
2017-11-25T08:57:40.266Z,100111.80
2017-11-25T08:58:42.905Z,100114.48
2017-11-25T08:59:45.398Z,100113.62
2017-11-25T09:00:47.877Z,100116.76
2017-11-25T09:01:50.340Z,100115.37
2017-11-25T09:02:52.825Z,100112.98
2017-11-25T09:03:55.353Z,100115.13
2017-11-25T09:04:57.842Z,100115.13
2017-11-25T09:06:00.432Z,100113.06
2017-11-25T09:07:02.975Z,100113.92
2017-11-25T09:08:05.453Z,100111.55
2017-11-25T09:09:07.966Z,100120.70
2017-11-25T09:10:10.451Z,100116.52
2017-11-25T09:11:12.938Z,100119.16
2017-11-25T09:12:15.400Z,100119.01
2017-11-25T09:13:17.890Z,100128.43
2017-11-25T09:14:20.486Z,100126.03
2017-11-25T09:15:22.975Z,100121.50
2017-11-25T09:16:25.444Z,100122.80
2017-11-25T09:17:27.915Z,100129.20
2017-11-25T09:18:30.395Z,100129.27
2017-11-25T09:19:32.879Z,100129.23
2017-11-25T09:20:35.410Z,100131.45
2017-11-25T09:21:37.927Z,100131.52
2017-11-25T09:22:40.436Z,100133.20
2017-11-25T09:23:42.922Z,100129.66
2017-11-25T09:24:45.440Z,100133.84
2017-11-25T09:25:47.931Z,100127.48
2017-11-25T09:26:50.426Z,100133.15
2017-11-25T09:27:52.908Z,100133.58
2017-11-25T09:28:55.387Z,100137.19
2017-11-25T09:29:57.896Z,100131.30
2017-11-25T09:31:00.368Z,100136.91
2017-11-25T09:32:02.901Z,100142.38
2017-11-25T09:33:05.396Z,100144.54
2017-11-25T09:34:07.870Z,100145.06
2017-11-25T09:35:10.384Z,100136.66
2017-11-25T09:36:12.949Z,100143.39
2017-11-25T09:37:15.425Z,100141.38
2017-11-25T09:38:17.967Z,100140.53
2017-11-25T09:39:20.541Z,100141.00
2017-11-25T09:40:23.085Z,100136.25
2017-11-25T09:41:25.547Z,100138.94
2017-11-25T09:42:28.032Z,100136.02
2017-11-25T09:43:30.546Z,100132.16
2017-11-25T09:44:33.043Z,100134.84
2017-11-25T09:45:35.590Z,100131.75
2017-11-25T09:46:38.079Z,100130.67
2017-11-25T09:47:40.543Z,100131.04
2017-11-25T09:48:43.231Z,100134.13
2017-11-25T09:49:45.723Z,100131.11
2017-11-25T09:50:48.232Z,100136.57
2017-11-25T09:51:50.700Z,100129.14
2017-11-25T09:52:53.186Z,100136.19
2017-11-25T09:53:55.749Z,100139.47
2017-11-25T09:54:58.226Z,100134.83
2017-11-25T09:56:00.807Z,100142.63
2017-11-25T09:57:03.388Z,100138.83
2017-11-25T09:58:05.884Z,100137.68
2017-11-25T09:59:08.378Z,100140.30
2017-11-25T10:00:10.860Z,100143.95
2017-11-25T10:01:13.370Z,100145.70
2017-11-25T10:02:15.914Z,100146.92
2017-11-25T10:03:18.454Z,100149.09
2017-11-25T10:04:20.942Z,100146.00
2017-11-25T10:05:23.403Z,100145.69
2017-11-25T10:06:25.909Z,100142.44
2017-11-25T10:07:28.419Z,100148.03
2017-11-25T10:08:30.931Z,100147.84
2017-11-25T10:09:33.477Z,100149.13
2017-11-25T10:10:35.979Z,100141.36
2017-11-25T10:11:38.571Z,100154.51
2017-11-25T10:12:41.105Z,100153.73
2017-11-25T10:13:43.571Z,100157.56
2017-11-25T10:15:47.879Z,100157.53
2017-11-25T10:16:50.403Z,100157.52
2017-11-25T10:17:52.892Z,100161.42
2017-11-25T10:18:55.406Z,100157.23
2017-11-25T10:19:57.917Z,100159.59
2017-11-25T10:21:00.403Z,100158.67
2017-11-25T10:22:02.957Z,100157.44
2017-11-25T10:23:05.467Z,100159.07
2017-11-25T10:24:07.942Z,100164.77
2017-11-25T10:25:10.425Z,100159.95
2017-11-25T10:26:12.963Z,100160.84
2017-11-25T10:27:15.456Z,100164.48
2017-11-25T10:28:17.961Z,100158.44
2017-11-25T10:29:20.692Z,100160.36
2017-11-25T10:30:23.348Z,100161.12
2017-11-25T10:31:25.895Z,100159.73
2017-11-25T10:32:28.457Z,100158.95
2017-11-25T10:33:30.924Z,100156.80
2017-11-25T10:34:33.406Z,100157.52
2017-11-25T10:35:35.937Z,100160.13
2017-11-25T10:36:38.463Z,100162.85
2017-11-25T10:37:40.970Z,100162.03
2017-11-25T10:38:45.091Z,100165.13
2017-11-25T10:39:47.565Z,100159.41
2017-11-25T10:40:50.055Z,100163.94
2017-11-25T10:41:52.705Z,100166.11
2017-11-25T10:42:55.205Z,100162.86
2017-11-25T10:43:57.783Z,100165.95
2017-11-25T10:45:00.346Z,100164.38
2017-11-25T10:46:02.822Z,100170.14
2017-11-25T10:47:05.327Z,100172.45
2017-11-25T10:48:07.844Z,100174.28
2017-11-25T10:49:10.305Z,100176.74
2017-11-25T10:50:12.839Z,100177.39
2017-11-25T10:51:15.299Z,100174.19
2017-11-25T10:52:17.769Z,100176.53
2017-11-25T10:53:20.271Z,100180.19
2017-11-25T10:54:22.739Z,100178.20
2017-11-25T10:55:25.211Z,100180.62
2017-11-25T10:56:28.141Z,100177.48
2017-11-25T10:57:30.614Z,100183.50
2017-11-25T10:58:33.106Z,100177.69
2017-11-25T10:59:35.573Z,100178.74
2017-11-25T11:00:38.037Z,100176.80
2017-11-25T11:01:40.559Z,100173.06
2017-11-25T11:02:43.062Z,100179.89
2017-11-25T11:03:45.571Z,100174.70
2017-11-25T11:04:48.043Z,100180.61
2017-11-25T11:05:50.533Z,100186.33
2017-11-25T11:06:53.041Z,100186.91
2017-11-25T11:07:55.537Z,100183.35
2017-11-25T11:08:58.028Z,100187.66
2017-11-25T11:10:00.501Z,100182.94
2017-11-25T11:11:02.993Z,100183.97
2017-11-25T11:12:05.492Z,100188.56
2017-11-25T11:13:07.974Z,100190.11
2017-11-25T11:14:10.480Z,100188.50
2017-11-25T11:15:12.952Z,100192.83
2017-11-25T11:16:15.420Z,100192.19
2017-11-25T11:17:17.884Z,100195.64
2017-11-25T11:18:20.362Z,100196.23
2017-11-25T11:19:22.867Z,100195.00
2017-11-25T11:20:25.357Z,100194.40
2017-11-25T11:21:27.837Z,100192.08
2017-11-25T11:22:30.324Z,100198.20
2017-11-25T11:23:32.806Z,100202.95
2017-11-25T11:24:35.309Z,100202.08
2017-11-25T11:25:37.791Z,100198.98
2017-11-25T11:26:40.327Z,100199.52
2017-11-25T11:27:42.789Z,100183.78
2017-11-25T11:28:45.260Z,100194.09
2017-11-25T11:29:47.765Z,100198.03
2017-11-25T11:30:50.239Z,100197.36
2017-11-25T11:31:52.762Z,100196.86
2017-11-25T11:32:55.235Z,100205.72
2017-11-25T11:33:57.718Z,100207.92
2017-11-25T11:35:00.204Z,100207.78
2017-11-25T11:36:02.693Z,100219.05
2017-11-25T11:37:05.176Z,100216.46
2017-11-25T11:38:07.668Z,100212.47
2017-11-25T11:39:10.128Z,100220.06
2017-11-25T11:40:12.674Z,100217.28
2017-11-25T11:41:15.149Z,100219.48
2017-11-25T11:42:17.640Z,100218.88
2017-11-25T11:43:20.147Z,100217.16
2017-11-25T11:44:22.635Z,100221.84
2017-11-25T11:45:25.139Z,100219.93
2017-11-25T11:46:27.624Z,100226.22
2017-11-25T11:47:30.084Z,100222.08
2017-11-25T11:48:32.552Z,100226.78
2017-11-25T11:49:35.045Z,100225.54
2017-11-25T11:50:37.589Z,100221.20
2017-11-25T11:51:40.052Z,100220.92
2017-11-25T11:52:42.551Z,100223.17
2017-11-25T11:53:45.112Z,100221.36
2017-11-25T11:54:47.586Z,100216.34
2017-11-25T11:55:50.397Z,100219.82
2017-11-25T11:56:52.870Z,100223.72
2017-11-25T11:57:55.434Z,100216.89
2017-11-25T11:58:58.108Z,100219.55
2017-11-25T12:00:00.989Z,100223.45
2017-11-25T12:01:03.860Z,100227.19
2017-11-25T12:02:06.321Z,100229.17
2017-11-25T12:03:09.245Z,100228.52
2017-11-25T12:04:11.847Z,100227.45